sensor_id;sensor_type;location;lat;lon;timestamp;P1;durP1;ratioP1;P2;durP2;ratioP2
13202;SDS011;6666;51.626;7.530;2022-12-07T00:01:30;11.77;;;8.25;;
13202;SDS011;6666;51.626;7.530;2022-12-07T00:04:02;13.33;;;8.10;;
13202;SDS011;6666;51.626;7.530;2022-12-07T00:06:32;12.03;;;8.40;;
13202;SDS011;6666;51.626;7.530;2022-12-07T00:09:02;14.60;;;8.47;;
13202;SDS011;6666;51.626;7.530;2022-12-07T00:11:32;13.57;;;8.50;;
13202;SDS011;6666;51.626;7.530;2022-12-07T00:14:00;14.83;;;8.50;;
13202;SDS011;6666;51.626;7.530;2022-12-07T00:16:30;15.13;;;8.85;;
13202;SDS011;6666;51.626;7.530;2022-12-07T00:19:02;13.43;;;8.70;;
13202;SDS011;6666;51.626;7.530;2022-12-07T00:21:32;14.70;;;8.10;;
13202;SDS011;6666;51.626;7.530;2022-12-07T00:24:02;11.85;;;8.00;;
13202;SDS011;6666;51.626;7.530;2022-12-07T00:26:32;14.52;;;8.45;;
13202;SDS011;6666;51.626;7.530;2022-12-07T00:29:04;14.50;;;8.10;;
13202;SDS011;6666;51.626;7.530;2022-12-07T00:31:34;12.88;;;7.60;;
13202;SDS011;6666;51.626;7.530;2022-12-07T00:34:07;12.15;;;8.10;;
13202;SDS011;6666;51.626;7.530;2022-12-07T00:36:40;11.32;;;7.15;;
13202;SDS011;6666;51.626;7.530;2022-12-07T00:39:08;10.55;;;7.65;;
13202;SDS011;6666;51.626;7.530;2022-12-07T00:41:36;12.98;;;7.65;;
13202;SDS011;6666;51.626;7.530;2022-12-07T00:44:04;13.25;;;7.80;;
13202;SDS011;6666;51.626;7.530;2022-12-07T00:46:33;11.77;;;7.90;;
13202;SDS011;6666;51.626;7.530;2022-12-07T00:49:01;12.47;;;7.63;;
13202;SDS011;6666;51.626;7.530;2022-12-07T00:51:31;11.35;;;7.80;;
13202;SDS011;6666;51.626;7.530;2022-12-07T00:53:59;12.80;;;8.20;;
13202;SDS011;6666;51.626;7.530;2022-12-07T00:56:28;11.13;;;8.00;;
13202;SDS011;6666;51.626;7.530;2022-12-07T00:58:58;13.02;;;7.90;;
13202;SDS011;6666;51.626;7.530;2022-12-07T01:01:28;11.65;;;8.02;;
13202;SDS011;6666;51.626;7.530;2022-12-07T01:03:57;11.70;;;7.90;;
13202;SDS011;6666;51.626;7.530;2022-12-07T01:06:27;12.68;;;7.95;;
13202;SDS011;6666;51.626;7.530;2022-12-07T01:08:58;12.50;;;7.80;;
13202;SDS011;6666;51.626;7.530;2022-12-07T01:11:27;16.95;;;8.90;;
13202;SDS011;6666;51.626;7.530;2022-12-07T01:13:57;15.57;;;8.63;;
13202;SDS011;6666;51.626;7.530;2022-12-07T01:16:27;13.03;;;8.77;;
13202;SDS011;6666;51.626;7.530;2022-12-07T01:18:57;13.70;;;8.35;;
13202;SDS011;6666;51.626;7.530;2022-12-07T01:21:27;13.38;;;7.97;;
13202;SDS011;6666;51.626;7.530;2022-12-07T01:24:00;12.77;;;8.18;;
13202;SDS011;6666;51.626;7.530;2022-12-07T01:26:29;12.43;;;8.15;;
13202;SDS011;6666;51.626;7.530;2022-12-07T01:28:57;14.05;;;8.60;;
13202;SDS011;6666;51.626;7.530;2022-12-07T01:31:27;13.13;;;8.82;;
13202;SDS011;6666;51.626;7.530;2022-12-07T01:33:57;14.77;;;7.88;;
13202;SDS011;6666;51.626;7.530;2022-12-07T01:36:27;16.48;;;9.05;;
13202;SDS011;6666;51.626;7.530;2022-12-07T01:38:57;14.27;;;8.90;;
13202;SDS011;6666;51.626;7.530;2022-12-07T01:41:30;14.90;;;8.80;;
13202;SDS011;6666;51.626;7.530;2022-12-07T01:44:14;13.40;;;8.43;;
13202;SDS011;6666;51.626;7.530;2022-12-07T01:46:48;14.52;;;7.90;;
13202;SDS011;6666;51.626;7.530;2022-12-07T01:49:21;14.57;;;9.07;;
13202;SDS011;6666;51.626;7.530;2022-12-07T01:51:57;16.60;;;9.82;;
13202;SDS011;6666;51.626;7.530;2022-12-07T01:54:30;13.50;;;8.70;;
13202;SDS011;6666;51.626;7.530;2022-12-07T01:57:01;13.00;;;8.40;;
13202;SDS011;6666;51.626;7.530;2022-12-07T01:59:31;12.80;;;8.60;;
13202;SDS011;6666;51.626;7.530;2022-12-07T02:01:59;16.08;;;9.20;;
13202;SDS011;6666;51.626;7.530;2022-12-07T02:04:33;15.20;;;8.27;;
13202;SDS011;6666;51.626;7.530;2022-12-07T02:07:03;14.52;;;9.40;;
13202;SDS011;6666;51.626;7.530;2022-12-07T02:09:32;19.40;;;9.30;;
13202;SDS011;6666;51.626;7.530;2022-12-07T02:12:02;14.40;;;8.70;;
13202;SDS011;6666;51.626;7.530;2022-12-07T02:14:31;15.10;;;9.20;;
13202;SDS011;6666;51.626;7.530;2022-12-07T02:17:03;16.03;;;9.57;;
13202;SDS011;6666;51.626;7.530;2022-12-07T02:22:46;13.30;;;8.80;;
13202;SDS011;6666;51.626;7.530;2022-12-07T02:25:30;13.98;;;8.75;;
13202;SDS011;6666;51.626;7.530;2022-12-07T02:28:12;12.43;;;8.32;;
13202;SDS011;6666;51.626;7.530;2022-12-07T02:30:50;15.02;;;9.05;;
13202;SDS011;6666;51.626;7.530;2022-12-07T02:33:24;12.57;;;8.73;;
13202;SDS011;6666;51.626;7.530;2022-12-07T02:35:58;13.93;;;9.35;;
13202;SDS011;6666;51.626;7.530;2022-12-07T02:38:31;13.05;;;9.02;;
13202;SDS011;6666;51.626;7.530;2022-12-07T02:41:07;13.85;;;9.23;;
13202;SDS011;6666;51.626;7.530;2022-12-07T02:43:41;17.20;;;9.00;;
13202;SDS011;6666;51.626;7.530;2022-12-07T02:46:14;15.43;;;9.25;;
13202;SDS011;6666;51.626;7.530;2022-12-07T02:48:47;12.93;;;8.13;;
13202;SDS011;6666;51.626;7.530;2022-12-07T02:51:17;14.23;;;9.20;;
13202;SDS011;6666;51.626;7.530;2022-12-07T02:53:45;16.83;;;9.40;;
13202;SDS011;6666;51.626;7.530;2022-12-07T02:56:16;16.27;;;9.90;;
13202;SDS011;6666;51.626;7.530;2022-12-07T02:58:55;14.07;;;8.97;;
13202;SDS011;6666;51.626;7.530;2022-12-07T03:01:39;18.02;;;9.85;;
13202;SDS011;6666;51.626;7.530;2022-12-07T03:04:19;19.60;;;8.90;;
13202;SDS011;6666;51.626;7.530;2022-12-07T03:07:00;15.05;;;9.50;;
13202;SDS011;6666;51.626;7.530;2022-12-07T03:09:37;15.80;;;8.70;;
13202;SDS011;6666;51.626;7.530;2022-12-07T03:12:12;13.73;;;9.13;;
13202;SDS011;6666;51.626;7.530;2022-12-07T03:14:45;15.30;;;8.57;;
13202;SDS011;6666;51.626;7.530;2022-12-07T03:17:20;16.93;;;9.63;;
13202;SDS011;6666;51.626;7.530;2022-12-07T03:19:52;16.10;;;9.63;;
13202;SDS011;6666;51.626;7.530;2022-12-07T03:22:22;18.92;;;10.18;;
13202;SDS011;6666;51.626;7.530;2022-12-07T03:24:52;18.10;;;10.30;;
13202;SDS011;6666;51.626;7.530;2022-12-07T03:27:24;14.40;;;9.70;;
13202;SDS011;6666;51.626;7.530;2022-12-07T03:29:56;19.10;;;9.70;;
13202;SDS011;6666;51.626;7.530;2022-12-07T03:32:32;15.43;;;9.53;;
13202;SDS011;6666;51.626;7.530;2022-12-07T03:35:03;20.57;;;10.17;;
13202;SDS011;6666;51.626;7.530;2022-12-07T03:37:36;18.95;;;10.50;;
13202;SDS011;6666;51.626;7.530;2022-12-07T03:40:13;15.20;;;9.45;;
13202;SDS011;6666;51.626;7.530;2022-12-07T03:42:46;18.17;;;9.47;;
13202;SDS011;6666;51.626;7.530;2022-12-07T03:45:15;18.52;;;10.00;;
13202;SDS011;6666;51.626;7.530;2022-12-07T03:47:47;17.35;;;10.02;;
13202;SDS011;6666;51.626;7.530;2022-12-07T03:50:21;17.92;;;10.10;;
13202;SDS011;6666;51.626;7.530;2022-12-07T03:52:55;17.77;;;9.50;;
13202;SDS011;6666;51.626;7.530;2022-12-07T03:55:29;17.43;;;9.27;;
13202;SDS011;6666;51.626;7.530;2022-12-07T03:58:01;16.40;;;9.88;;
13202;SDS011;6666;51.626;7.530;2022-12-07T04:00:31;18.42;;;9.90;;
13202;SDS011;6666;51.626;7.530;2022-12-07T04:03:01;19.00;;;9.45;;
13202;SDS011;6666;51.626;7.530;2022-12-07T04:05:30;17.97;;;10.10;;
13202;SDS011;6666;51.626;7.530;2022-12-07T04:07:58;15.05;;;9.20;;
13202;SDS011;6666;51.626;7.530;2022-12-07T04:10:27;16.58;;;9.60;;
13202;SDS011;6666;51.626;7.530;2022-12-07T04:12:55;17.45;;;9.43;;
13202;SDS011;6666;51.626;7.530;2022-12-07T04:15:24;16.35;;;8.80;;
13202;SDS011;6666;51.626;7.530;2022-12-07T04:17:52;16.33;;;9.00;;
13202;SDS011;6666;51.626;7.530;2022-12-07T04:20:22;16.10;;;8.40;;
13202;SDS011;6666;51.626;7.530;2022-12-07T04:22:51;15.00;;;8.50;;
13202;SDS011;6666;51.626;7.530;2022-12-07T04:25:19;16.20;;;9.20;;
13202;SDS011;6666;51.626;7.530;2022-12-07T04:27:48;15.23;;;9.30;;
13202;SDS011;6666;51.626;7.530;2022-12-07T04:30:16;18.67;;;9.30;;
13202;SDS011;6666;51.626;7.530;2022-12-07T04:32:44;15.38;;;9.05;;
13202;SDS011;6666;51.626;7.530;2022-12-07T04:35:12;17.38;;;9.50;;
13202;SDS011;6666;51.626;7.530;2022-12-07T04:37:42;14.65;;;8.70;;
13202;SDS011;6666;51.626;7.530;2022-12-07T04:40:11;16.40;;;8.77;;
13202;SDS011;6666;51.626;7.530;2022-12-07T04:42:40;16.50;;;9.07;;
13202;SDS011;6666;51.626;7.530;2022-12-07T04:45:09;16.90;;;8.97;;
13202;SDS011;6666;51.626;7.530;2022-12-07T04:47:37;15.48;;;9.10;;
13202;SDS011;6666;51.626;7.530;2022-12-07T04:50:06;14.50;;;8.38;;
13202;SDS011;6666;51.626;7.530;2022-12-07T04:52:36;15.43;;;9.37;;
13202;SDS011;6666;51.626;7.530;2022-12-07T04:55:06;15.10;;;8.00;;
13202;SDS011;6666;51.626;7.530;2022-12-07T04:57:35;14.50;;;7.90;;
13202;SDS011;6666;51.626;7.530;2022-12-07T05:00:03;16.30;;;9.47;;
13202;SDS011;6666;51.626;7.530;2022-12-07T05:02:32;19.45;;;8.77;;
13202;SDS011;6666;51.626;7.530;2022-12-07T05:05:01;15.73;;;8.30;;
13202;SDS011;6666;51.626;7.530;2022-12-07T05:07:29;17.17;;;8.50;;
13202;SDS011;6666;51.626;7.530;2022-12-07T05:09:58;13.55;;;7.95;;
13202;SDS011;6666;51.626;7.530;2022-12-07T05:12:28;13.00;;;8.27;;
13202;SDS011;6666;51.626;7.530;2022-12-07T05:14:56;16.63;;;8.30;;
13202;SDS011;6666;51.626;7.530;2022-12-07T05:17:24;14.03;;;8.00;;
13202;SDS011;6666;51.626;7.530;2022-12-07T05:19:52;13.50;;;8.77;;
13202;SDS011;6666;51.626;7.530;2022-12-07T05:22:21;17.63;;;7.63;;
13202;SDS011;6666;51.626;7.530;2022-12-07T05:24:49;18.03;;;8.80;;
13202;SDS011;6666;51.626;7.530;2022-12-07T05:27:17;22.00;;;9.10;;
13202;SDS011;6666;51.626;7.530;2022-12-07T05:29:46;19.70;;;8.60;;
13202;SDS011;6666;51.626;7.530;2022-12-07T05:32:15;17.85;;;8.10;;
13202;SDS011;6666;51.626;7.530;2022-12-07T05:34:43;18.00;;;8.57;;
13202;SDS011;6666;51.626;7.530;2022-12-07T05:37:11;15.70;;;7.85;;
13202;SDS011;6666;51.626;7.530;2022-12-07T05:39:39;19.15;;;9.02;;
13202;SDS011;6666;51.626;7.530;2022-12-07T05:42:09;16.98;;;7.82;;
13202;SDS011;6666;51.626;7.530;2022-12-07T05:44:41;16.65;;;7.85;;
13202;SDS011;6666;51.626;7.530;2022-12-07T05:47:13;16.15;;;7.38;;
13202;SDS011;6666;51.626;7.530;2022-12-07T05:49:42;14.70;;;7.93;;
13202;SDS011;6666;51.626;7.530;2022-12-07T05:52:10;13.93;;;8.07;;
13202;SDS011;6666;51.626;7.530;2022-12-07T05:54:38;13.50;;;7.70;;
13202;SDS011;6666;51.626;7.530;2022-12-07T05:57:06;16.93;;;8.20;;
13202;SDS011;6666;51.626;7.530;2022-12-07T05:59:35;15.50;;;7.60;;
13202;SDS011;6666;51.626;7.530;2022-12-07T06:02:02;17.07;;;8.53;;
13202;SDS011;6666;51.626;7.530;2022-12-07T06:04:36;22.57;;;8.67;;
13202;SDS011;6666;51.626;7.530;2022-12-07T06:07:06;14.18;;;8.20;;
13202;SDS011;6666;51.626;7.530;2022-12-07T06:09:35;16.43;;;7.10;;
13202;SDS011;6666;51.626;7.530;2022-12-07T06:12:04;14.77;;;8.10;;
13202;SDS011;6666;51.626;7.530;2022-12-07T06:14:50;13.40;;;7.50;;
13202;SDS011;6666;51.626;7.530;2022-12-07T06:17:18;15.75;;;7.70;;
13202;SDS011;6666;51.626;7.530;2022-12-07T06:19:48;18.10;;;8.15;;
13202;SDS011;6666;51.626;7.530;2022-12-07T06:22:17;15.98;;;7.38;;
13202;SDS011;6666;51.626;7.530;2022-12-07T06:24:45;19.83;;;8.30;;
13202;SDS011;6666;51.626;7.530;2022-12-07T06:27:13;15.05;;;8.50;;
13202;SDS011;6666;51.626;7.530;2022-12-07T06:29:42;19.23;;;8.75;;
13202;SDS011;6666;51.626;7.530;2022-12-07T06:32:10;17.13;;;7.55;;
13202;SDS011;6666;51.626;7.530;2022-12-07T06:34:38;17.65;;;8.18;;
13202;SDS011;6666;51.626;7.530;2022-12-07T06:37:08;24.40;;;7.80;;
13202;SDS011;6666;51.626;7.530;2022-12-07T06:39:36;13.40;;;7.37;;
13202;SDS011;6666;51.626;7.530;2022-12-07T06:42:05;17.45;;;8.02;;
13202;SDS011;6666;51.626;7.530;2022-12-07T06:44:35;18.17;;;7.70;;
13202;SDS011;6666;51.626;7.530;2022-12-07T06:47:03;14.38;;;7.57;;
13202;SDS011;6666;51.626;7.530;2022-12-07T06:49:52;16.30;;;7.30;;
13202;SDS011;6666;51.626;7.530;2022-12-07T06:52:21;15.13;;;8.05;;
13202;SDS011;6666;51.626;7.530;2022-12-07T06:54:50;20.33;;;8.20;;
13202;SDS011;6666;51.626;7.530;2022-12-07T06:57:18;16.63;;;8.27;;
13202;SDS011;6666;51.626;7.530;2022-12-07T06:59:46;14.73;;;8.25;;
13202;SDS011;6666;51.626;7.530;2022-12-07T07:02:14;16.10;;;8.50;;
13202;SDS011;6666;51.626;7.530;2022-12-07T07:04:43;16.80;;;8.20;;
13202;SDS011;6666;51.626;7.530;2022-12-07T07:07:11;19.63;;;8.60;;
13202;SDS011;6666;51.626;7.530;2022-12-07T07:09:40;19.75;;;7.45;;
13202;SDS011;6666;51.626;7.530;2022-12-07T07:12:09;15.23;;;8.15;;
13202;SDS011;6666;51.626;7.530;2022-12-07T07:14:37;15.55;;;7.40;;
13202;SDS011;6666;51.626;7.530;2022-12-07T07:17:05;19.75;;;7.68;;
13202;SDS011;6666;51.626;7.530;2022-12-07T07:19:33;15.60;;;7.90;;
13202;SDS011;6666;51.626;7.530;2022-12-07T07:22:03;16.60;;;7.70;;
13202;SDS011;6666;51.626;7.530;2022-12-07T07:24:31;17.65;;;7.80;;
13202;SDS011;6666;51.626;7.530;2022-12-07T07:27:00;23.40;;;7.47;;
13202;SDS011;6666;51.626;7.530;2022-12-07T07:29:29;18.35;;;7.85;;
13202;SDS011;6666;51.626;7.530;2022-12-07T07:31:57;20.85;;;8.10;;
13202;SDS011;6666;51.626;7.530;2022-12-07T07:34:32;15.25;;;8.07;;
13202;SDS011;6666;51.626;7.530;2022-12-07T07:37:01;15.05;;;6.50;;
13202;SDS011;6666;51.626;7.530;2022-12-07T07:39:30;15.80;;;7.10;;
13202;SDS011;6666;51.626;7.530;2022-12-07T07:41:58;15.10;;;6.97;;
13202;SDS011;6666;51.626;7.530;2022-12-07T07:44:28;16.83;;;6.88;;
13202;SDS011;6666;51.626;7.530;2022-12-07T07:47:01;13.50;;;6.70;;
13202;SDS011;6666;51.626;7.530;2022-12-07T07:49:29;15.55;;;6.93;;
13202;SDS011;6666;51.626;7.530;2022-12-07T07:51:57;12.88;;;6.65;;
13202;SDS011;6666;51.626;7.530;2022-12-07T07:54:26;19.85;;;7.47;;
13202;SDS011;6666;51.626;7.530;2022-12-07T07:56:54;15.10;;;7.20;;
13202;SDS011;6666;51.626;7.530;2022-12-07T07:59:22;16.67;;;6.50;;
13202;SDS011;6666;51.626;7.530;2022-12-07T08:01:52;14.50;;;6.88;;
13202;SDS011;6666;51.626;7.530;2022-12-07T08:04:21;16.63;;;7.18;;
13202;SDS011;6666;51.626;7.530;2022-12-07T08:06:50;13.93;;;6.77;;
13202;SDS011;6666;51.626;7.530;2022-12-07T08:09:18;14.97;;;6.77;;
13202;SDS011;6666;51.626;7.530;2022-12-07T08:11:46;13.57;;;6.90;;
13202;SDS011;6666;51.626;7.530;2022-12-07T08:14:14;10.98;;;6.10;;
13202;SDS011;6666;51.626;7.530;2022-12-07T08:16:43;14.80;;;7.10;;
13202;SDS011;6666;51.626;7.530;2022-12-07T08:19:12;14.98;;;6.45;;
13202;SDS011;6666;51.626;7.530;2022-12-07T08:21:41;12.93;;;6.63;;
13202;SDS011;6666;51.626;7.530;2022-12-07T08:24:09;12.77;;;6.40;;
13202;SDS011;6666;51.626;7.530;2022-12-07T08:26:37;13.32;;;6.30;;
13202;SDS011;6666;51.626;7.530;2022-12-07T08:29:05;11.55;;;6.57;;
13202;SDS011;6666;51.626;7.530;2022-12-07T08:31:34;15.52;;;7.40;;
13202;SDS011;6666;51.626;7.530;2022-12-07T08:34:02;12.13;;;6.78;;
13202;SDS011;6666;51.626;7.530;2022-12-07T08:36:32;14.90;;;7.40;;
13202;SDS011;6666;51.626;7.530;2022-12-07T08:39:00;16.67;;;6.87;;
13202;SDS011;6666;51.626;7.530;2022-12-07T08:41:49;17.60;;;6.93;;
13202;SDS011;6666;51.626;7.530;2022-12-07T08:44:17;14.23;;;6.50;;
13202;SDS011;6666;51.626;7.530;2022-12-07T08:46:46;16.87;;;7.20;;
13202;SDS011;6666;51.626;7.530;2022-12-07T08:49:18;10.02;;;5.65;;
13202;SDS011;6666;51.626;7.530;2022-12-07T08:51:51;15.82;;;6.80;;
13202;SDS011;6666;51.626;7.530;2022-12-07T08:54:20;11.23;;;5.90;;
13202;SDS011;6666;51.626;7.530;2022-12-07T08:56:48;9.43;;;5.40;;
13202;SDS011;6666;51.626;7.530;2022-12-07T08:59:24;11.73;;;6.00;;
13202;SDS011;6666;51.626;7.530;2022-12-07T09:01:53;9.73;;;5.63;;
13202;SDS011;6666;51.626;7.530;2022-12-07T09:04:22;11.88;;;6.10;;
13202;SDS011;6666;51.626;7.530;2022-12-07T09:06:52;18.02;;;6.15;;
13202;SDS011;6666;51.626;7.530;2022-12-07T09:09:22;12.88;;;5.72;;
13202;SDS011;6666;51.626;7.530;2022-12-07T09:11:50;12.52;;;6.07;;
13202;SDS011;6666;51.626;7.530;2022-12-07T09:14:18;13.02;;;7.05;;
13202;SDS011;6666;51.626;7.530;2022-12-07T09:16:46;13.35;;;6.30;;
13202;SDS011;6666;51.626;7.530;2022-12-07T09:19:14;12.63;;;6.60;;
13202;SDS011;6666;51.626;7.530;2022-12-07T09:21:43;11.35;;;6.00;;
13202;SDS011;6666;51.626;7.530;2022-12-07T09:24:12;15.52;;;6.60;;
13202;SDS011;6666;51.626;7.530;2022-12-07T09:26:41;15.00;;;6.25;;
13202;SDS011;6666;51.626;7.530;2022-12-07T09:29:09;11.30;;;5.38;;
13202;SDS011;6666;51.626;7.530;2022-12-07T09:31:37;10.80;;;5.60;;
13202;SDS011;6666;51.626;7.530;2022-12-07T09:34:06;11.93;;;5.10;;
13202;SDS011;6666;51.626;7.530;2022-12-07T09:36:34;10.52;;;5.60;;
13202;SDS011;6666;51.626;7.530;2022-12-07T09:39:02;15.43;;;4.97;;
13202;SDS011;6666;51.626;7.530;2022-12-07T09:41:33;7.60;;;4.47;;
13202;SDS011;6666;51.626;7.530;2022-12-07T09:44:06;11.80;;;5.32;;
13202;SDS011;6666;51.626;7.530;2022-12-07T09:46:39;9.80;;;4.95;;
13202;SDS011;6666;51.626;7.530;2022-12-07T09:49:11;10.13;;;4.60;;
13202;SDS011;6666;51.626;7.530;2022-12-07T09:51:42;8.73;;;4.60;;
13202;SDS011;6666;51.626;7.530;2022-12-07T09:54:11;11.48;;;5.10;;
13202;SDS011;6666;51.626;7.530;2022-12-07T09:56:42;9.13;;;4.20;;
13202;SDS011;6666;51.626;7.530;2022-12-07T09:59:13;10.07;;;4.75;;
13202;SDS011;6666;51.626;7.530;2022-12-07T10:01:47;12.43;;;5.00;;
13202;SDS011;6666;51.626;7.530;2022-12-07T10:04:18;9.07;;;5.50;;
13202;SDS011;6666;51.626;7.530;2022-12-07T10:06:49;8.93;;;4.90;;
13202;SDS011;6666;51.626;7.530;2022-12-07T10:09:19;11.05;;;4.65;;
13202;SDS011;6666;51.626;7.530;2022-12-07T10:11:59;6.53;;;4.07;;
13202;SDS011;6666;51.626;7.530;2022-12-07T10:14:30;8.57;;;4.40;;
13202;SDS011;6666;51.626;7.530;2022-12-07T10:17:31;9.73;;;4.10;;
13202;SDS011;6666;51.626;7.530;2022-12-07T10:20:12;9.53;;;3.60;;
13202;SDS011;6666;51.626;7.530;2022-12-07T10:22:54;8.38;;;3.70;;
13202;SDS011;6666;51.626;7.530;2022-12-07T10:25:25;6.97;;;3.57;;
13202;SDS011;6666;51.626;7.530;2022-12-07T10:28:00;11.90;;;3.60;;
13202;SDS011;6666;51.626;7.530;2022-12-07T10:30:30;9.75;;;4.20;;
13202;SDS011;6666;51.626;7.530;2022-12-07T10:33:00;7.20;;;3.60;;
13202;SDS011;6666;51.626;7.530;2022-12-07T10:35:29;7.25;;;3.08;;
13202;SDS011;6666;51.626;7.530;2022-12-07T10:37:58;8.90;;;3.30;;
13202;SDS011;6666;51.626;7.530;2022-12-07T10:40:31;6.60;;;3.17;;
13202;SDS011;6666;51.626;7.530;2022-12-07T10:43:03;5.50;;;3.28;;
13202;SDS011;6666;51.626;7.530;2022-12-07T10:45:34;8.23;;;3.70;;
13202;SDS011;6666;51.626;7.530;2022-12-07T10:48:30;6.13;;;3.17;;
13202;SDS011;6666;51.626;7.530;2022-12-07T10:51:08;4.65;;;2.95;;
13202;SDS011;6666;51.626;7.530;2022-12-07T10:53:47;10.43;;;4.40;;
13202;SDS011;6666;51.626;7.530;2022-12-07T10:56:24;6.55;;;3.10;;
13202;SDS011;6666;51.626;7.530;2022-12-07T10:59:13;6.80;;;3.50;;
13202;SDS011;6666;51.626;7.530;2022-12-07T11:02:06;6.25;;;2.92;;
13202;SDS011;6666;51.626;7.530;2022-12-07T11:04:52;4.57;;;2.95;;
13202;SDS011;6666;51.626;7.530;2022-12-07T11:07:33;5.75;;;2.35;;
13202;SDS011;6666;51.626;7.530;2022-12-07T11:10:11;7.38;;;2.78;;
13202;SDS011;6666;51.626;7.530;2022-12-07T11:12:52;9.13;;;2.60;;
13202;SDS011;6666;51.626;7.530;2022-12-07T11:18:49;10.00;;;2.80;;
13202;SDS011;6666;51.626;7.530;2022-12-07T11:21:27;5.77;;;2.80;;
13202;SDS011;6666;51.626;7.530;2022-12-07T11:24:03;3.95;;;2.28;;
13202;SDS011;6666;51.626;7.530;2022-12-07T11:26:46;6.07;;;2.72;;
13202;SDS011;6666;51.626;7.530;2022-12-07T11:29:32;5.93;;;2.80;;
13202;SDS011;6666;51.626;7.530;2022-12-07T11:32:57;7.43;;;2.80;;
13202;SDS011;6666;51.626;7.530;2022-12-07T11:35:40;10.05;;;2.50;;
13202;SDS011;6666;51.626;7.530;2022-12-07T11:38:17;5.10;;;3.28;;
13202;SDS011;6666;51.626;7.530;2022-12-07T11:40:56;8.70;;;2.65;;
13202;SDS011;6666;51.626;7.530;2022-12-07T11:46:27;8.35;;;3.40;;
13202;SDS011;6666;51.626;7.530;2022-12-07T11:52:27;5.20;;;2.60;;
13202;SDS011;6666;51.626;7.530;2022-12-07T11:55:03;4.45;;;2.67;;
13202;SDS011;6666;51.626;7.530;2022-12-07T11:57:43;4.85;;;2.58;;
13202;SDS011;6666;51.626;7.530;2022-12-07T12:00:14;7.65;;;2.75;;
13202;SDS011;6666;51.626;7.530;2022-12-07T12:02:46;6.57;;;3.42;;
13202;SDS011;6666;51.626;7.530;2022-12-07T12:05:19;11.77;;;2.70;;
13202;SDS011;6666;51.626;7.530;2022-12-07T12:07:52;3.58;;;2.28;;
13202;SDS011;6666;51.626;7.530;2022-12-07T12:10:50;5.72;;;2.53;;
13202;SDS011;6666;51.626;7.530;2022-12-07T12:13:29;5.50;;;2.60;;
13202;SDS011;6666;51.626;7.530;2022-12-07T12:19:30;6.43;;;2.70;;
13202;SDS011;6666;51.626;7.530;2022-12-07T12:22:04;5.70;;;2.70;;
13202;SDS011;6666;51.626;7.530;2022-12-07T12:24:40;6.13;;;2.80;;
13202;SDS011;6666;51.626;7.530;2022-12-07T12:27:15;6.05;;;2.58;;
13202;SDS011;6666;51.626;7.530;2022-12-07T12:29:52;5.60;;;2.50;;
13202;SDS011;6666;51.626;7.530;2022-12-07T12:32:23;7.93;;;2.47;;
13202;SDS011;6666;51.626;7.530;2022-12-07T12:35:27;7.65;;;2.70;;
13202;SDS011;6666;51.626;7.530;2022-12-07T12:40:57;8.40;;;2.70;;
13202;SDS011;6666;51.626;7.530;2022-12-07T12:52:50;6.32;;;2.65;;
13202;SDS011;6666;51.626;7.530;2022-12-07T12:58:29;6.30;;;2.40;;
13202;SDS011;6666;51.626;7.530;2022-12-07T13:04:18;6.00;;;2.60;;
13202;SDS011;6666;51.626;7.530;2022-12-07T13:07:06;8.10;;;2.47;;
13202;SDS011;6666;51.626;7.530;2022-12-07T13:09:41;4.95;;;2.38;;
13202;SDS011;6666;51.626;7.530;2022-12-07T13:12:13;6.03;;;2.47;;
13202;SDS011;6666;51.626;7.530;2022-12-07T13:14:53;6.90;;;2.60;;
13202;SDS011;6666;51.626;7.530;2022-12-07T13:23:26;4.35;;;2.35;;
13202;SDS011;6666;51.626;7.530;2022-12-07T13:26:02;6.85;;;2.00;;
13202;SDS011;6666;51.626;7.530;2022-12-07T13:28:43;3.90;;;1.90;;
13202;SDS011;6666;51.626;7.530;2022-12-07T13:34:02;4.30;;;1.90;;
13202;SDS011;6666;51.626;7.530;2022-12-07T13:36:33;5.37;;;1.80;;
13202;SDS011;6666;51.626;7.530;2022-12-07T13:39:11;5.50;;;1.90;;
13202;SDS011;6666;51.626;7.530;2022-12-07T13:41:48;8.07;;;1.80;;
13202;SDS011;6666;51.626;7.530;2022-12-07T13:44:19;8.20;;;2.40;;
13202;SDS011;6666;51.626;7.530;2022-12-07T13:46:57;8.70;;;2.20;;
13202;SDS011;6666;51.626;7.530;2022-12-07T13:49:32;11.35;;;2.50;;
13202;SDS011;6666;51.626;7.530;2022-12-07T13:52:13;6.25;;;2.00;;
13202;SDS011;6666;51.626;7.530;2022-12-07T13:54:43;4.80;;;1.75;;
13202;SDS011;6666;51.626;7.530;2022-12-07T13:57:12;7.37;;;1.90;;
13202;SDS011;6666;51.626;7.530;2022-12-07T13:59:41;3.97;;;1.67;;
13202;SDS011;6666;51.626;7.530;2022-12-07T14:02:18;5.22;;;2.15;;
13202;SDS011;6666;51.626;7.530;2022-12-07T14:05:07;8.90;;;2.50;;
13202;SDS011;6666;51.626;7.530;2022-12-07T14:07:44;5.45;;;1.90;;
13202;SDS011;6666;51.626;7.530;2022-12-07T14:10:23;5.35;;;1.70;;
13202;SDS011;6666;51.626;7.530;2022-12-07T14:12:53;4.00;;;1.50;;
13202;SDS011;6666;51.626;7.530;2022-12-07T14:15:23;6.35;;;1.60;;
13202;SDS011;6666;51.626;7.530;2022-12-07T14:17:55;2.22;;;1.30;;
13202;SDS011;6666;51.626;7.530;2022-12-07T14:20:29;1.52;;;1.30;;
13202;SDS011;6666;51.626;7.530;2022-12-07T14:22:58;8.50;;;2.00;;
13202;SDS011;6666;51.626;7.530;2022-12-07T14:25:44;4.05;;;1.77;;
13202;SDS011;6666;51.626;7.530;2022-12-07T14:28:26;3.85;;;1.50;;
13202;SDS011;6666;51.626;7.530;2022-12-07T14:30:56;5.40;;;1.60;;
13202;SDS011;6666;51.626;7.530;2022-12-07T14:33:26;5.68;;;1.90;;
13202;SDS011;6666;51.626;7.530;2022-12-07T14:35:55;5.38;;;1.70;;
13202;SDS011;6666;51.626;7.530;2022-12-07T14:38:25;2.67;;;1.40;;
13202;SDS011;6666;51.626;7.530;2022-12-07T14:40:53;6.55;;;2.08;;
13202;SDS011;6666;51.626;7.530;2022-12-07T14:43:44;4.85;;;1.63;;
13202;SDS011;6666;51.626;7.530;2022-12-07T14:46:32;6.00;;;1.70;;
13202;SDS011;6666;51.626;7.530;2022-12-07T14:49:02;3.67;;;1.40;;
13202;SDS011;6666;51.626;7.530;2022-12-07T14:51:51;9.48;;;1.88;;
13202;SDS011;6666;51.626;7.530;2022-12-07T14:54:40;4.50;;;1.80;;
13202;SDS011;6666;51.626;7.530;2022-12-07T14:57:09;8.63;;;3.30;;
13202;SDS011;6666;51.626;7.530;2022-12-07T14:59:38;9.60;;;2.38;;
13202;SDS011;6666;51.626;7.530;2022-12-07T15:02:11;7.97;;;2.10;;
13202;SDS011;6666;51.626;7.530;2022-12-07T15:04:41;7.53;;;2.20;;
13202;SDS011;6666;51.626;7.530;2022-12-07T15:07:12;8.35;;;2.90;;
13202;SDS011;6666;51.626;7.530;2022-12-07T15:13:58;7.87;;;2.50;;
13202;SDS011;6666;51.626;7.530;2022-12-07T15:16:35;6.13;;;2.90;;
13202;SDS011;6666;51.626;7.530;2022-12-07T15:19:26;8.50;;;2.58;;
13202;SDS011;6666;51.626;7.530;2022-12-07T15:21:57;7.10;;;2.55;;
13202;SDS011;6666;51.626;7.530;2022-12-07T15:24:26;5.80;;;2.60;;
13202;SDS011;6666;51.626;7.530;2022-12-07T15:26:55;8.60;;;3.08;;
13202;SDS011;6666;51.626;7.530;2022-12-07T15:29:24;11.27;;;3.10;;
13202;SDS011;6666;51.626;7.530;2022-12-07T15:31:52;9.68;;;3.00;;
13202;SDS011;6666;51.626;7.530;2022-12-07T15:34:23;10.85;;;2.85;;
13202;SDS011;6666;51.626;7.530;2022-12-07T15:36:51;8.00;;;2.85;;
13202;SDS011;6666;51.626;7.530;2022-12-07T15:39:21;11.73;;;3.30;;
13202;SDS011;6666;51.626;7.530;2022-12-07T15:41:49;8.70;;;3.10;;
13202;SDS011;6666;51.626;7.530;2022-12-07T15:44:17;10.18;;;2.92;;
13202;SDS011;6666;51.626;7.530;2022-12-07T15:47:03;5.80;;;3.20;;
13202;SDS011;6666;51.626;7.530;2022-12-07T15:49:32;8.60;;;3.20;;
13202;SDS011;6666;51.626;7.530;2022-12-07T15:52:00;6.38;;;3.30;;
13202;SDS011;6666;51.626;7.530;2022-12-07T15:54:30;8.43;;;2.90;;
13202;SDS011;6666;51.626;7.530;2022-12-07T15:56:59;10.95;;;3.38;;
13202;SDS011;6666;51.626;7.530;2022-12-07T15:59:28;9.70;;;3.30;;
13202;SDS011;6666;51.626;7.530;2022-12-07T16:01:56;5.35;;;2.85;;
13202;SDS011;6666;51.626;7.530;2022-12-07T16:04:26;7.22;;;3.00;;
13202;SDS011;6666;51.626;7.530;2022-12-07T16:06:55;9.15;;;3.45;;
13202;SDS011;6666;51.626;7.530;2022-12-07T16:09:24;5.78;;;3.33;;
13202;SDS011;6666;51.626;7.530;2022-12-07T16:11:54;10.10;;;4.18;;